YXBA weather

Ballina - Kingsford Smith Park Helipad
Ballina, New South Wales, Australia

Public forecast

Using degrees Celsius for public forecast. Weather courtesy of forecast.io.

METAR (pilot weather report)

Closest report is Ballina Byron Gateway Airport, 2.2 nm (4.0 km) NNW. Retrieved 2019/04/18 10:00 UTC (18 minutes ago):

YBNA 181000Z AUTO 15007KT 9999 // SCT028 SCT063 22/19 Q1023

TAF (pilot weather forecast)

Closest forecast is Gold Coast Airport, 42.5 nm (78.6 km) N. Retrieved 2019/04/18 06:00 UTC (4 hours ago):

TAF YBCG 180507Z 1806/1906 16013KT 9999 -SHRA SCT035 FM180800 20009KT 9999 -SHRA SCT015 SCT025 FM182300 12014KT 9999 -SHRA FEW015 SCT025 INTER 1814/1906 3000 SHRA BKN012